sensor_id;sensor_type;location;lat;lon;timestamp;P1;durP1;ratioP1;P2;durP2;ratioP2
19907;SDS011;10116;53.112;7.356;2023-02-01T00:01:33;4.73;;;2.10;;
19907;SDS011;10116;53.112;7.356;2023-02-01T00:03:58;3.10;;;2.23;;
19907;SDS011;10116;53.112;7.356;2023-02-01T00:06:24;4.17;;;2.37;;
19907;SDS011;10116;53.112;7.356;2023-02-01T00:08:52;4.50;;;2.50;;
19907;SDS011;10116;53.112;7.356;2023-02-01T00:11:19;2.43;;;2.00;;
19907;SDS011;10116;53.112;7.356;2023-02-01T00:13:44;2.60;;;2.00;;
19907;SDS011;10116;53.112;7.356;2023-02-01T00:18:46;3.23;;;2.30;;
19907;SDS011;10116;53.112;7.356;2023-02-01T00:21:15;3.53;;;2.07;;
19907;SDS011;10116;53.112;7.356;2023-02-01T00:23:41;2.47;;;2.10;;
19907;SDS011;10116;53.112;7.356;2023-02-01T00:26:10;3.00;;;2.10;;
19907;SDS011;10116;53.112;7.356;2023-02-01T00:28:42;4.23;;;2.33;;
19907;SDS011;10116;53.112;7.356;2023-02-01T00:31:07;3.20;;;2.17;;
19907;SDS011;10116;53.112;7.356;2023-02-01T00:33:33;3.37;;;2.30;;
19907;SDS011;10116;53.112;7.356;2023-02-01T00:36:03;3.57;;;1.93;;
19907;SDS011;10116;53.112;7.356;2023-02-01T00:38:30;4.27;;;2.33;;
19907;SDS011;10116;53.112;7.356;2023-02-01T00:41:02;7.53;;;2.30;;
19907;SDS011;10116;53.112;7.356;2023-02-01T00:43:33;5.53;;;2.20;;
19907;SDS011;10116;53.112;7.356;2023-02-01T00:45:59;3.77;;;1.67;;
19907;SDS011;10116;53.112;7.356;2023-02-01T00:48:25;3.03;;;2.03;;
19907;SDS011;10116;53.112;7.356;2023-02-01T00:50:51;3.90;;;1.90;;
19907;SDS011;10116;53.112;7.356;2023-02-01T00:53:16;4.43;;;2.20;;
19907;SDS011;10116;53.112;7.356;2023-02-01T00:55:46;2.50;;;2.13;;
19907;SDS011;10116;53.112;7.356;2023-02-01T00:58:12;3.60;;;1.90;;
19907;SDS011;10116;53.112;7.356;2023-02-01T01:00:37;3.23;;;2.33;;
19907;SDS011;10116;53.112;7.356;2023-02-01T01:03:03;5.40;;;2.70;;
19907;SDS011;10116;53.112;7.356;2023-02-01T01:05:43;3.53;;;1.90;;
19907;SDS011;10116;53.112;7.356;2023-02-01T01:08:12;4.33;;;2.07;;
19907;SDS011;10116;53.112;7.356;2023-02-01T01:10:38;5.60;;;2.20;;
19907;SDS011;10116;53.112;7.356;2023-02-01T01:13:04;2.57;;;1.77;;
19907;SDS011;10116;53.112;7.356;2023-02-01T01:15:30;4.00;;;1.70;;
19907;SDS011;10116;53.112;7.356;2023-02-01T01:17:56;5.30;;;2.30;;
19907;SDS011;10116;53.112;7.356;2023-02-01T01:20:21;4.97;;;2.47;;
19907;SDS011;10116;53.112;7.356;2023-02-01T01:22:47;6.00;;;2.50;;
19907;SDS011;10116;53.112;7.356;2023-02-01T01:25:13;3.00;;;2.00;;
19907;SDS011;10116;53.112;7.356;2023-02-01T01:27:39;4.00;;;2.10;;
19907;SDS011;10116;53.112;7.356;2023-02-01T01:30:05;4.40;;;2.43;;
19907;SDS011;10116;53.112;7.356;2023-02-01T01:32:32;3.47;;;2.27;;
19907;SDS011;10116;53.112;7.356;2023-02-01T01:34:58;4.00;;;1.97;;
19907;SDS011;10116;53.112;7.356;2023-02-01T01:37:23;2.83;;;2.13;;
19907;SDS011;10116;53.112;7.356;2023-02-01T01:39:49;6.80;;;2.60;;
19907;SDS011;10116;53.112;7.356;2023-02-01T01:42:15;3.60;;;1.90;;
19907;SDS011;10116;53.112;7.356;2023-02-01T01:47:34;2.93;;;1.77;;
19907;SDS011;10116;53.112;7.356;2023-02-01T01:50:06;3.90;;;2.10;;
19907;SDS011;10116;53.112;7.356;2023-02-01T01:52:34;3.60;;;2.00;;
19907;SDS011;10116;53.112;7.356;2023-02-01T01:55:02;2.87;;;2.10;;
19907;SDS011;10116;53.112;7.356;2023-02-01T01:57:29;3.33;;;2.20;;
19907;SDS011;10116;53.112;7.356;2023-02-01T02:00:10;3.20;;;2.20;;
19907;SDS011;10116;53.112;7.356;2023-02-01T02:02:38;3.40;;;2.07;;
19907;SDS011;10116;53.112;7.356;2023-02-01T02:05:05;3.73;;;2.20;;
19907;SDS011;10116;53.112;7.356;2023-02-01T02:07:33;2.53;;;1.70;;
19907;SDS011;10116;53.112;7.356;2023-02-01T02:10:06;5.97;;;2.40;;
19907;SDS011;10116;53.112;7.356;2023-02-01T02:12:35;5.77;;;2.40;;
19907;SDS011;10116;53.112;7.356;2023-02-01T02:15:05;3.47;;;2.37;;
19907;SDS011;10116;53.112;7.356;2023-02-01T02:17:36;3.97;;;2.13;;
19907;SDS011;10116;53.112;7.356;2023-02-01T02:20:22;4.10;;;1.73;;
19907;SDS011;10116;53.112;7.356;2023-02-01T02:31:37;3.23;;;2.13;;
19907;SDS011;10116;53.112;7.356;2023-02-01T02:40:07;5.23;;;2.73;;
19907;SDS011;10116;53.112;7.356;2023-02-01T02:42:43;5.63;;;2.20;;
19907;SDS011;10116;53.112;7.356;2023-02-01T02:45:43;2.10;;;1.80;;
19907;SDS011;10116;53.112;7.356;2023-02-01T02:48:38;4.60;;;1.97;;
19907;SDS011;10116;53.112;7.356;2023-02-01T02:54:05;3.27;;;1.97;;
19907;SDS011;10116;53.112;7.356;2023-02-01T02:57:01;3.43;;;1.80;;
19907;SDS011;10116;53.112;7.356;2023-02-01T02:59:48;3.27;;;2.27;;
19907;SDS011;10116;53.112;7.356;2023-02-01T03:02:33;2.63;;;1.93;;
19907;SDS011;10116;53.112;7.356;2023-02-01T03:05:18;4.90;;;2.30;;
19907;SDS011;10116;53.112;7.356;2023-02-01T03:13:04;3.07;;;2.20;;
19907;SDS011;10116;53.112;7.356;2023-02-01T03:15:38;3.03;;;1.67;;
19907;SDS011;10116;53.112;7.356;2023-02-01T03:18:14;3.57;;;2.20;;
19907;SDS011;10116;53.112;7.356;2023-02-01T03:20:44;3.60;;;1.53;;
19907;SDS011;10116;53.112;7.356;2023-02-01T03:23:15;4.40;;;2.20;;
19907;SDS011;10116;53.112;7.356;2023-02-01T03:25:42;2.40;;;2.00;;
19907;SDS011;10116;53.112;7.356;2023-02-01T03:28:09;3.40;;;2.10;;
19907;SDS011;10116;53.112;7.356;2023-02-01T03:30:40;4.80;;;2.50;;
19907;SDS011;10116;53.112;7.356;2023-02-01T03:33:17;3.63;;;2.07;;
19907;SDS011;10116;53.112;7.356;2023-02-01T03:39:16;2.03;;;1.67;;
19907;SDS011;10116;53.112;7.356;2023-02-01T03:41:55;2.70;;;2.03;;
19907;SDS011;10116;53.112;7.356;2023-02-01T03:44:29;1.83;;;1.50;;
19907;SDS011;10116;53.112;7.356;2023-02-01T03:47:14;3.97;;;2.40;;
19907;SDS011;10116;53.112;7.356;2023-02-01T03:49:53;1.97;;;1.63;;
19907;SDS011;10116;53.112;7.356;2023-02-01T03:52:39;2.73;;;1.67;;
19907;SDS011;10116;53.112;7.356;2023-02-01T03:55:12;5.33;;;2.20;;
19907;SDS011;10116;53.112;7.356;2023-02-01T03:57:41;2.17;;;1.67;;
19907;SDS011;10116;53.112;7.356;2023-02-01T04:00:18;2.60;;;2.03;;
19907;SDS011;10116;53.112;7.356;2023-02-01T04:02:47;3.20;;;1.80;;
19907;SDS011;10116;53.112;7.356;2023-02-01T04:05:12;4.70;;;2.10;;
19907;SDS011;10116;53.112;7.356;2023-02-01T04:07:38;2.47;;;1.77;;
19907;SDS011;10116;53.112;7.356;2023-02-01T04:10:04;2.53;;;1.63;;
19907;SDS011;10116;53.112;7.356;2023-02-01T04:12:30;2.70;;;1.93;;
19907;SDS011;10116;53.112;7.356;2023-02-01T04:14:56;4.03;;;2.10;;
19907;SDS011;10116;53.112;7.356;2023-02-01T04:17:21;2.33;;;1.73;;
19907;SDS011;10116;53.112;7.356;2023-02-01T04:19:47;3.10;;;1.77;;
19907;SDS011;10116;53.112;7.356;2023-02-01T04:22:12;2.30;;;1.50;;
19907;SDS011;10116;53.112;7.356;2023-02-01T04:24:38;4.47;;;1.97;;
19907;SDS011;10116;53.112;7.356;2023-02-01T04:27:04;3.30;;;2.03;;
19907;SDS011;10116;53.112;7.356;2023-02-01T04:29:29;2.33;;;2.10;;
19907;SDS011;10116;53.112;7.356;2023-02-01T04:31:55;3.20;;;2.10;;
19907;SDS011;10116;53.112;7.356;2023-02-01T04:34:20;1.73;;;1.63;;
19907;SDS011;10116;53.112;7.356;2023-02-01T04:36:47;4.70;;;2.03;;
19907;SDS011;10116;53.112;7.356;2023-02-01T04:39:13;2.50;;;1.90;;
19907;SDS011;10116;53.112;7.356;2023-02-01T04:41:39;3.10;;;1.70;;
19907;SDS011;10116;53.112;7.356;2023-02-01T04:44:04;3.40;;;2.30;;
19907;SDS011;10116;53.112;7.356;2023-02-01T04:46:30;3.00;;;2.00;;
19907;SDS011;10116;53.112;7.356;2023-02-01T04:48:56;2.83;;;1.73;;
19907;SDS011;10116;53.112;7.356;2023-02-01T04:51:21;3.33;;;2.00;;
19907;SDS011;10116;53.112;7.356;2023-02-01T04:53:47;3.97;;;1.70;;
19907;SDS011;10116;53.112;7.356;2023-02-01T04:56:12;3.40;;;1.63;;
19907;SDS011;10116;53.112;7.356;2023-02-01T04:58:38;3.60;;;1.83;;
19907;SDS011;10116;53.112;7.356;2023-02-01T05:01:04;3.63;;;1.80;;
19907;SDS011;10116;53.112;7.356;2023-02-01T05:03:31;4.93;;;1.90;;
19907;SDS011;10116;53.112;7.356;2023-02-01T05:05:57;5.20;;;1.83;;
19907;SDS011;10116;53.112;7.356;2023-02-01T05:08:24;6.40;;;2.00;;
19907;SDS011;10116;53.112;7.356;2023-02-01T05:10:50;2.53;;;1.60;;
19907;SDS011;10116;53.112;7.356;2023-02-01T05:13:16;2.63;;;1.80;;
19907;SDS011;10116;53.112;7.356;2023-02-01T05:16:00;1.93;;;1.77;;
19907;SDS011;10116;53.112;7.356;2023-02-01T05:18:26;2.60;;;2.03;;
19907;SDS011;10116;53.112;7.356;2023-02-01T05:20:52;2.00;;;1.80;;
19907;SDS011;10116;53.112;7.356;2023-02-01T05:23:17;2.40;;;1.70;;
19907;SDS011;10116;53.112;7.356;2023-02-01T05:25:43;3.87;;;2.10;;
19907;SDS011;10116;53.112;7.356;2023-02-01T05:28:08;3.80;;;1.90;;
19907;SDS011;10116;53.112;7.356;2023-02-01T05:30:34;2.97;;;1.43;;
19907;SDS011;10116;53.112;7.356;2023-02-01T05:33:00;3.90;;;2.13;;
19907;SDS011;10116;53.112;7.356;2023-02-01T05:35:26;4.63;;;2.27;;
19907;SDS011;10116;53.112;7.356;2023-02-01T05:37:52;2.97;;;1.70;;
19907;SDS011;10116;53.112;7.356;2023-02-01T05:40:18;4.30;;;2.20;;
19907;SDS011;10116;53.112;7.356;2023-02-01T05:42:43;3.30;;;1.87;;
19907;SDS011;10116;53.112;7.356;2023-02-01T05:45:09;3.43;;;2.00;;
19907;SDS011;10116;53.112;7.356;2023-02-01T05:47:35;5.10;;;1.90;;
19907;SDS011;10116;53.112;7.356;2023-02-01T05:50:00;3.93;;;1.77;;
19907;SDS011;10116;53.112;7.356;2023-02-01T05:52:26;2.30;;;1.83;;
19907;SDS011;10116;53.112;7.356;2023-02-01T05:54:52;4.03;;;1.70;;
19907;SDS011;10116;53.112;7.356;2023-02-01T05:57:17;1.87;;;1.73;;
19907;SDS011;10116;53.112;7.356;2023-02-01T05:59:43;1.53;;;1.40;;
19907;SDS011;10116;53.112;7.356;2023-02-01T06:02:13;5.50;;;2.07;;
19907;SDS011;10116;53.112;7.356;2023-02-01T06:04:40;2.83;;;1.80;;
19907;SDS011;10116;53.112;7.356;2023-02-01T06:07:06;2.50;;;1.67;;
19907;SDS011;10116;53.112;7.356;2023-02-01T06:09:33;2.20;;;1.73;;
19907;SDS011;10116;53.112;7.356;2023-02-01T06:11:59;3.53;;;1.87;;
19907;SDS011;10116;53.112;7.356;2023-02-01T06:14:25;2.47;;;1.70;;
19907;SDS011;10116;53.112;7.356;2023-02-01T06:16:52;7.90;;;2.30;;
19907;SDS011;10116;53.112;7.356;2023-02-01T06:19:19;3.03;;;1.80;;
19907;SDS011;10116;53.112;7.356;2023-02-01T06:21:45;3.33;;;2.40;;
19907;SDS011;10116;53.112;7.356;2023-02-01T06:24:10;6.00;;;1.90;;
19907;SDS011;10116;53.112;7.356;2023-02-01T06:26:36;4.00;;;1.63;;
19907;SDS011;10116;53.112;7.356;2023-02-01T06:29:02;4.57;;;1.83;;
19907;SDS011;10116;53.112;7.356;2023-02-01T06:31:27;5.93;;;1.97;;
19907;SDS011;10116;53.112;7.356;2023-02-01T06:33:53;2.40;;;1.97;;
19907;SDS011;10116;53.112;7.356;2023-02-01T06:36:19;5.93;;;1.87;;
19907;SDS011;10116;53.112;7.356;2023-02-01T06:38:46;2.10;;;1.83;;
19907;SDS011;10116;53.112;7.356;2023-02-01T06:41:12;3.40;;;1.93;;
19907;SDS011;10116;53.112;7.356;2023-02-01T06:43:38;4.73;;;2.10;;
19907;SDS011;10116;53.112;7.356;2023-02-01T06:46:05;7.97;;;2.50;;
19907;SDS011;10116;53.112;7.356;2023-02-01T06:48:32;7.63;;;2.20;;
19907;SDS011;10116;53.112;7.356;2023-02-01T06:50:58;5.80;;;2.03;;
19907;SDS011;10116;53.112;7.356;2023-02-01T06:53:24;4.00;;;2.37;;
19907;SDS011;10116;53.112;7.356;2023-02-01T06:58:32;6.17;;;2.57;;
19907;SDS011;10116;53.112;7.356;2023-02-01T07:01:03;10.33;;;2.30;;
19907;SDS011;10116;53.112;7.356;2023-02-01T07:03:33;7.27;;;2.43;;
19907;SDS011;10116;53.112;7.356;2023-02-01T07:05:58;5.23;;;2.30;;
19907;SDS011;10116;53.112;7.356;2023-02-01T07:08:25;5.97;;;2.20;;
19907;SDS011;10116;53.112;7.356;2023-02-01T07:10:52;3.97;;;2.60;;
19907;SDS011;10116;53.112;7.356;2023-02-01T07:13:18;4.30;;;2.40;;
19907;SDS011;10116;53.112;7.356;2023-02-01T07:15:43;4.53;;;2.07;;
19907;SDS011;10116;53.112;7.356;2023-02-01T07:18:11;9.50;;;2.80;;
19907;SDS011;10116;53.112;7.356;2023-02-01T07:20:39;4.33;;;2.10;;
19907;SDS011;10116;53.112;7.356;2023-02-01T07:23:05;6.27;;;2.37;;
19907;SDS011;10116;53.112;7.356;2023-02-01T07:25:30;4.80;;;2.17;;
19907;SDS011;10116;53.112;7.356;2023-02-01T07:27:56;4.27;;;2.27;;
19907;SDS011;10116;53.112;7.356;2023-02-01T07:30:22;5.07;;;2.30;;
19907;SDS011;10116;53.112;7.356;2023-02-01T07:32:48;7.40;;;2.50;;
19907;SDS011;10116;53.112;7.356;2023-02-01T07:35:13;9.17;;;2.40;;
19907;SDS011;10116;53.112;7.356;2023-02-01T07:37:39;6.47;;;2.57;;
19907;SDS011;10116;53.112;7.356;2023-02-01T07:40:05;3.67;;;1.97;;
19907;SDS011;10116;53.112;7.356;2023-02-01T07:42:31;4.50;;;2.20;;
19907;SDS011;10116;53.112;7.356;2023-02-01T07:44:57;4.77;;;2.50;;
19907;SDS011;10116;53.112;7.356;2023-02-01T07:47:22;3.30;;;1.97;;
19907;SDS011;10116;53.112;7.356;2023-02-01T07:49:48;4.50;;;1.97;;
19907;SDS011;10116;53.112;7.356;2023-02-01T07:52:13;4.63;;;1.90;;
19907;SDS011;10116;53.112;7.356;2023-02-01T07:54:42;3.60;;;2.00;;
19907;SDS011;10116;53.112;7.356;2023-02-01T07:57:08;7.03;;;2.37;;
19907;SDS011;10116;53.112;7.356;2023-02-01T07:59:34;4.60;;;2.00;;
19907;SDS011;10116;53.112;7.356;2023-02-01T08:02:00;5.77;;;2.33;;
19907;SDS011;10116;53.112;7.356;2023-02-01T08:04:25;5.23;;;2.50;;
19907;SDS011;10116;53.112;7.356;2023-02-01T08:06:51;3.67;;;1.90;;
19907;SDS011;10116;53.112;7.356;2023-02-01T08:09:17;2.90;;;1.87;;
19907;SDS011;10116;53.112;7.356;2023-02-01T08:11:42;3.20;;;1.70;;
19907;SDS011;10116;53.112;7.356;2023-02-01T08:14:08;3.20;;;2.00;;
19907;SDS011;10116;53.112;7.356;2023-02-01T08:16:33;7.53;;;1.83;;
19907;SDS011;10116;53.112;7.356;2023-02-01T08:19:01;3.80;;;2.23;;
19907;SDS011;10116;53.112;7.356;2023-02-01T08:21:28;5.20;;;2.17;;
19907;SDS011;10116;53.112;7.356;2023-02-01T08:24:13;9.63;;;2.30;;
19907;SDS011;10116;53.112;7.356;2023-02-01T08:26:39;4.07;;;1.90;;
19907;SDS011;10116;53.112;7.356;2023-02-01T08:29:05;3.17;;;2.27;;
19907;SDS011;10116;53.112;7.356;2023-02-01T08:31:32;7.90;;;1.70;;
19907;SDS011;10116;53.112;7.356;2023-02-01T08:33:59;6.40;;;2.00;;
19907;SDS011;10116;53.112;7.356;2023-02-01T08:36:28;5.70;;;2.50;;
19907;SDS011;10116;53.112;7.356;2023-02-01T08:38:55;4.87;;;2.13;;
19907;SDS011;10116;53.112;7.356;2023-02-01T08:41:22;3.60;;;2.17;;
19907;SDS011;10116;53.112;7.356;2023-02-01T08:43:49;18.33;;;2.47;;
19907;SDS011;10116;53.112;7.356;2023-02-01T08:46:15;10.90;;;2.07;;
19907;SDS011;10116;53.112;7.356;2023-02-01T08:48:41;2.93;;;1.73;;
19907;SDS011;10116;53.112;7.356;2023-02-01T08:51:09;3.97;;;2.30;;
19907;SDS011;10116;53.112;7.356;2023-02-01T08:53:37;4.53;;;2.53;;
19907;SDS011;10116;53.112;7.356;2023-02-01T08:56:05;2.97;;;1.90;;
19907;SDS011;10116;53.112;7.356;2023-02-01T08:58:31;3.30;;;2.17;;
19907;SDS011;10116;53.112;7.356;2023-02-01T09:01:01;2.40;;;1.83;;
19907;SDS011;10116;53.112;7.356;2023-02-01T09:03:31;5.17;;;2.40;;
19907;SDS011;10116;53.112;7.356;2023-02-01T09:06:04;4.83;;;1.83;;
19907;SDS011;10116;53.112;7.356;2023-02-01T09:08:31;3.93;;;1.90;;
19907;SDS011;10116;53.112;7.356;2023-02-01T09:10:58;3.90;;;2.00;;
19907;SDS011;10116;53.112;7.356;2023-02-01T09:13:25;6.60;;;2.43;;
19907;SDS011;10116;53.112;7.356;2023-02-01T09:15:51;3.53;;;2.07;;
19907;SDS011;10116;53.112;7.356;2023-02-01T09:18:16;4.47;;;2.30;;
19907;SDS011;10116;53.112;7.356;2023-02-01T09:20:42;4.03;;;2.70;;
19907;SDS011;10116;53.112;7.356;2023-02-01T09:23:08;2.30;;;1.73;;
19907;SDS011;10116;53.112;7.356;2023-02-01T09:25:33;5.93;;;2.30;;
19907;SDS011;10116;53.112;7.356;2023-02-01T09:27:59;3.50;;;2.10;;
19907;SDS011;10116;53.112;7.356;2023-02-01T09:30:25;9.47;;;2.60;;
19907;SDS011;10116;53.112;7.356;2023-02-01T09:32:50;10.20;;;2.43;;
19907;SDS011;10116;53.112;7.356;2023-02-01T09:35:16;4.37;;;2.17;;
19907;SDS011;10116;53.112;7.356;2023-02-01T09:37:42;3.50;;;1.50;;
19907;SDS011;10116;53.112;7.356;2023-02-01T09:40:10;4.93;;;2.00;;
19907;SDS011;10116;53.112;7.356;2023-02-01T09:42:49;5.70;;;2.07;;
19907;SDS011;10116;53.112;7.356;2023-02-01T09:48:01;3.23;;;2.10;;
19907;SDS011;10116;53.112;7.356;2023-02-01T09:50:33;4.83;;;2.17;;
19907;SDS011;10116;53.112;7.356;2023-02-01T09:55:45;4.97;;;2.37;;
19907;SDS011;10116;53.112;7.356;2023-02-01T10:00:53;5.30;;;2.50;;
19907;SDS011;10116;53.112;7.356;2023-02-01T10:03:22;3.30;;;2.07;;
19907;SDS011;10116;53.112;7.356;2023-02-01T10:20:01;3.23;;;2.30;;
19907;SDS011;10116;53.112;7.356;2023-02-01T10:22:41;7.20;;;2.67;;
19907;SDS011;10116;53.112;7.356;2023-02-01T10:25:17;4.20;;;2.20;;
19907;SDS011;10116;53.112;7.356;2023-02-01T10:27:47;3.67;;;1.93;;
19907;SDS011;10116;53.112;7.356;2023-02-01T10:30:20;4.73;;;2.53;;
19907;SDS011;10116;53.112;7.356;2023-02-01T10:33:00;5.30;;;2.27;;
19907;SDS011;10116;53.112;7.356;2023-02-01T10:35:39;6.20;;;2.67;;
19907;SDS011;10116;53.112;7.356;2023-02-01T10:38:08;4.20;;;2.27;;
19907;SDS011;10116;53.112;7.356;2023-02-01T10:40:44;6.47;;;2.80;;
19907;SDS011;10116;53.112;7.356;2023-02-01T10:43:09;3.90;;;2.40;;
19907;SDS011;10116;53.112;7.356;2023-02-01T10:45:42;7.00;;;2.33;;
19907;SDS011;10116;53.112;7.356;2023-02-01T10:48:08;2.87;;;1.97;;
19907;SDS011;10116;53.112;7.356;2023-02-01T10:55:50;3.87;;;2.03;;
19907;SDS011;10116;53.112;7.356;2023-02-01T10:58:18;3.90;;;2.07;;
19907;SDS011;10116;53.112;7.356;2023-02-01T11:01:17;8.30;;;2.60;;
19907;SDS011;10116;53.112;7.356;2023-02-01T11:08:58;5.13;;;2.30;;
19907;SDS011;10116;53.112;7.356;2023-02-01T11:11:26;3.60;;;1.90;;
19907;SDS011;10116;53.112;7.356;2023-02-01T11:13:53;4.17;;;2.40;;
19907;SDS011;10116;53.112;7.356;2023-02-01T11:16:34;4.03;;;2.57;;
19907;SDS011;10116;53.112;7.356;2023-02-01T11:19:02;2.70;;;2.03;;
19907;SDS011;10116;53.112;7.356;2023-02-01T11:21:29;6.40;;;2.30;;
19907;SDS011;10116;53.112;7.356;2023-02-01T11:23:55;5.50;;;2.07;;
19907;SDS011;10116;53.112;7.356;2023-02-01T11:26:27;3.30;;;2.13;;
19907;SDS011;10116;53.112;7.356;2023-02-01T11:28:54;5.93;;;2.60;;
19907;SDS011;10116;53.112;7.356;2023-02-01T11:31:24;6.10;;;2.03;;
19907;SDS011;10116;53.112;7.356;2023-02-01T11:33:52;4.20;;;2.13;;
19907;SDS011;10116;53.112;7.356;2023-02-01T11:36:24;2.67;;;2.07;;
19907;SDS011;10116;53.112;7.356;2023-02-01T11:39:08;3.70;;;2.00;;
19907;SDS011;10116;53.112;7.356;2023-02-01T11:41:44;5.07;;;2.70;;
19907;SDS011;10116;53.112;7.356;2023-02-01T11:44:26;3.30;;;2.10;;
19907;SDS011;10116;53.112;7.356;2023-02-01T11:49:50;2.63;;;1.87;;
19907;SDS011;10116;53.112;7.356;2023-02-01T11:58:16;4.53;;;2.40;;
19907;SDS011;10116;53.112;7.356;2023-02-01T12:04:08;3.43;;;1.80;;
19907;SDS011;10116;53.112;7.356;2023-02-01T12:23:14;2.30;;;1.90;;
19907;SDS011;10116;53.112;7.356;2023-02-01T12:26:00;2.33;;;2.13;;
19907;SDS011;10116;53.112;7.356;2023-02-01T12:33:52;3.50;;;2.23;;
19907;SDS011;10116;53.112;7.356;2023-02-01T12:42:03;2.13;;;1.20;;
19907;SDS011;10116;53.112;7.356;2023-02-01T12:50:11;4.80;;;1.50;;
19907;SDS011;10116;53.112;7.356;2023-02-01T12:52:54;3.00;;;1.60;;
19907;SDS011;10116;53.112;7.356;2023-02-01T12:55:36;1.67;;;1.50;;
19907;SDS011;10116;53.112;7.356;2023-02-01T12:58:07;2.60;;;1.57;;
19907;SDS011;10116;53.112;7.356;2023-02-01T13:00:40;2.60;;;1.80;;
19907;SDS011;10116;53.112;7.356;2023-02-01T13:08:42;1.63;;;1.20;;
19907;SDS011;10116;53.112;7.356;2023-02-01T13:11:16;1.60;;;1.20;;
19907;SDS011;10116;53.112;7.356;2023-02-01T13:17:05;1.60;;;1.50;;
19907;SDS011;10116;53.112;7.356;2023-02-01T13:24:52;2.90;;;1.30;;
19907;SDS011;10116;53.112;7.356;2023-02-01T13:27:21;2.40;;;1.40;;
19907;SDS011;10116;53.112;7.356;2023-02-01T13:29:52;4.10;;;1.70;;
19907;SDS011;10116;53.112;7.356;2023-02-01T13:36:05;1.40;;;1.30;;
19907;SDS011;10116;53.112;7.356;2023-02-01T13:41:32;1.93;;;1.40;;
19907;SDS011;10116;53.112;7.356;2023-02-01T13:44:08;4.00;;;1.73;;
19907;SDS011;10116;53.112;7.356;2023-02-01T13:46:41;2.63;;;1.70;;
19907;SDS011;10116;53.112;7.356;2023-02-01T13:49:15;2.37;;;1.50;;
19907;SDS011;10116;53.112;7.356;2023-02-01T13:51:49;2.70;;;1.70;;
19907;SDS011;10116;53.112;7.356;2023-02-01T13:54:31;3.97;;;1.87;;
19907;SDS011;10116;53.112;7.356;2023-02-01T13:57:01;7.60;;;2.53;;
19907;SDS011;10116;53.112;7.356;2023-02-01T14:05:03;5.53;;;2.30;;
19907;SDS011;10116;53.112;7.356;2023-02-01T14:07:29;5.13;;;2.47;;
19907;SDS011;10116;53.112;7.356;2023-02-01T14:09:55;12.67;;;2.70;;
19907;SDS011;10116;53.112;7.356;2023-02-01T14:15:18;7.07;;;2.20;;
19907;SDS011;10116;53.112;7.356;2023-02-01T14:17:46;6.80;;;2.73;;
19907;SDS011;10116;53.112;7.356;2023-02-01T14:23:10;6.97;;;3.30;;
19907;SDS011;10116;53.112;7.356;2023-02-01T14:25:39;10.13;;;3.23;;
19907;SDS011;10116;53.112;7.356;2023-02-01T14:28:12;10.30;;;2.97;;
19907;SDS011;10116;53.112;7.356;2023-02-01T14:30:53;7.37;;;2.93;;
19907;SDS011;10116;53.112;7.356;2023-02-01T14:33:22;13.53;;;3.13;;
19907;SDS011;10116;53.112;7.356;2023-02-01T14:36:01;284.30;;;45.57;;
19907;SDS011;10116;53.112;7.356;2023-02-01T14:38:31;135.83;;;30.23;;
19907;SDS011;10116;53.112;7.356;2023-02-01T14:41:15;152.30;;;30.33;;
19907;SDS011;10116;53.112;7.356;2023-02-01T14:49:33;66.20;;;18.90;;
19907;SDS011;10116;53.112;7.356;2023-02-01T14:52:09;48.80;;;16.33;;
19907;SDS011;10116;53.112;7.356;2023-02-01T14:54:39;58.63;;;14.80;;
19907;SDS011;10116;53.112;7.356;2023-02-01T14:57:05;39.87;;;13.00;;
19907;SDS011;10116;53.112;7.356;2023-02-01T14:59:35;43.30;;;12.03;;
19907;SDS011;10116;53.112;7.356;2023-02-01T15:02:01;34.80;;;11.87;;
19907;SDS011;10116;53.112;7.356;2023-02-01T15:04:41;24.13;;;9.17;;
19907;SDS011;10116;53.112;7.356;2023-02-01T15:07:07;27.17;;;9.40;;
19907;SDS011;10116;53.112;7.356;2023-02-01T15:09:47;24.80;;;7.97;;
19907;SDS011;10116;53.112;7.356;2023-02-01T15:12:17;22.17;;;7.57;;
19907;SDS011;10116;53.112;7.356;2023-02-01T15:20:25;22.67;;;6.10;;
19907;SDS011;10116;53.112;7.356;2023-02-01T15:22:57;16.60;;;5.30;;
19907;SDS011;10116;53.112;7.356;2023-02-01T15:25:27;19.00;;;5.10;;
19907;SDS011;10116;53.112;7.356;2023-02-01T15:27:54;9.33;;;4.50;;
19907;SDS011;10116;53.112;7.356;2023-02-01T15:30:25;13.10;;;4.43;;
19907;SDS011;10116;53.112;7.356;2023-02-01T15:33:17;16.53;;;4.60;;
19907;SDS011;10116;53.112;7.356;2023-02-01T15:35:45;12.67;;;4.13;;
19907;SDS011;10116;53.112;7.356;2023-02-01T15:46:08;9.60;;;3.80;;
19907;SDS011;10116;53.112;7.356;2023-02-01T15:48:42;7.13;;;3.23;;
19907;SDS011;10116;53.112;7.356;2023-02-01T15:51:12;15.93;;;4.13;;
19907;SDS011;10116;53.112;7.356;2023-02-01T15:53:44;12.27;;;3.90;;
19907;SDS011;10116;53.112;7.356;2023-02-01T15:56:11;8.50;;;3.60;;
19907;SDS011;10116;53.112;7.356;2023-02-01T15:58:37;10.90;;;3.63;;
19907;SDS011;10116;53.112;7.356;2023-02-01T16:01:10;10.73;;;3.43;;
19907;SDS011;10116;53.112;7.356;2023-02-01T16:03:39;10.03;;;3.30;;
19907;SDS011;10116;53.112;7.356;2023-02-01T16:06:09;9.23;;;3.10;;
19907;SDS011;10116;53.112;7.356;2023-02-01T16:08:36;10.90;;;3.50;;
19907;SDS011;10116;53.112;7.356;2023-02-01T16:11:16;13.83;;;2.93;;
19907;SDS011;10116;53.112;7.356;2023-02-01T16:13:57;7.53;;;3.40;;
19907;SDS011;10116;53.112;7.356;2023-02-01T16:16:24;8.13;;;3.40;;
19907;SDS011;10116;53.112;7.356;2023-02-01T16:18:50;7.57;;;3.27;;
19907;SDS011;10116;53.112;7.356;2023-02-01T16:21:16;10.50;;;3.47;;
19907;SDS011;10116;53.112;7.356;2023-02-01T16:23:41;13.17;;;3.47;;
19907;SDS011;10116;53.112;7.356;2023-02-01T16:26:07;10.30;;;3.83;;
19907;SDS011;10116;53.112;7.356;2023-02-01T16:28:33;11.17;;;3.20;;
19907;SDS011;10116;53.112;7.356;2023-02-01T16:30:59;7.07;;;3.20;;
19907;SDS011;10116;53.112;7.356;2023-02-01T16:33:25;9.63;;;3.03;;
19907;SDS011;10116;53.112;7.356;2023-02-01T16:35:51;15.33;;;3.63;;
19907;SDS011;10116;53.112;7.356;2023-02-01T16:38:22;11.20;;;3.13;;
19907;SDS011;10116;53.112;7.356;2023-02-01T16:40:48;7.30;;;3.47;;
19907;SDS011;10116;53.112;7.356;2023-02-01T16:45:41;9.77;;;3.57;;
19907;SDS011;10116;53.112;7.356;2023-02-01T16:48:27;7.03;;;3.60;;
19907;SDS011;10116;53.112;7.356;2023-02-01T16:50:59;9.60;;;3.50;;
19907;SDS011;10116;53.112;7.356;2023-02-01T16:53:29;7.63;;;3.23;;
19907;SDS011;10116;53.112;7.356;2023-02-01T16:55:56;9.50;;;4.13;;
19907;SDS011;10116;53.112;7.356;2023-02-01T16:58:25;10.83;;;3.67;;
19907;SDS011;10116;53.112;7.356;2023-02-01T17:00:51;10.40;;;3.40;;
19907;SDS011;10116;53.112;7.356;2023-02-01T17:03:18;9.83;;;4.00;;
19907;SDS011;10116;53.112;7.356;2023-02-01T17:05:46;11.00;;;4.03;;
19907;SDS011;10116;53.112;7.356;2023-02-01T17:08:18;8.47;;;3.33;;
19907;SDS011;10116;53.112;7.356;2023-02-01T17:10:54;6.57;;;3.20;;
19907;SDS011;10116;53.112;7.356;2023-02-01T17:13:20;9.53;;;3.87;;
19907;SDS011;10116;53.112;7.356;2023-02-01T17:15:48;11.37;;;3.73;;
19907;SDS011;10116;53.112;7.356;2023-02-01T17:18:16;11.30;;;3.90;;
19907;SDS011;10116;53.112;7.356;2023-02-01T17:20:43;10.93;;;3.03;;
19907;SDS011;10116;53.112;7.356;2023-02-01T17:23:09;12.47;;;3.60;;
19907;SDS011;10116;53.112;7.356;2023-02-01T17:25:35;9.03;;;3.30;;
19907;SDS011;10116;53.112;7.356;2023-02-01T17:28:01;8.47;;;3.47;;
19907;SDS011;10116;53.112;7.356;2023-02-01T17:30:26;5.50;;;3.07;;
19907;SDS011;10116;53.112;7.356;2023-02-01T17:32:52;5.17;;;2.93;;
19907;SDS011;10116;53.112;7.356;2023-02-01T17:35:22;6.20;;;2.83;;
19907;SDS011;10116;53.112;7.356;2023-02-01T17:37:49;17.20;;;2.93;;
19907;SDS011;10116;53.112;7.356;2023-02-01T17:40:16;10.50;;;3.57;;
19907;SDS011;10116;53.112;7.356;2023-02-01T17:42:42;13.33;;;3.20;;
19907;SDS011;10116;53.112;7.356;2023-02-01T17:47:52;8.90;;;3.40;;